sensor_id;sensor_type;location;lat;lon;timestamp;noise_LAeq;noise_LA_min;noise_LA_max;noise_LA01;noise_LA95
48148;Laerm;29352;48.708;9.290;2023-08-12T00:00:11;52.75;51.53;54.34;;
48148;Laerm;29352;48.708;9.290;2023-08-12T00:02:38;52.71;51.53;56.33;;
48148;Laerm;29352;48.708;9.290;2023-08-12T00:05:06;52.73;51.53;56.97;;
48148;Laerm;29352;48.708;9.290;2023-08-12T00:07:33;52.59;51.38;54.47;;
48148;Laerm;29352;48.708;9.290;2023-08-12T00:10:03;52.73;51.68;55.69;;
48148;Laerm;29352;48.708;9.290;2023-08-12T00:12:34;52.70;51.30;54.15;;
48148;Laerm;29352;48.708;9.290;2023-08-12T00:15:00;52.73;51.68;54.03;;
48148;Laerm;29352;48.708;9.290;2023-08-12T00:17:26;52.76;51.61;53.90;;
48148;Laerm;29352;48.708;9.290;2023-08-12T00:19:52;52.81;51.61;53.81;;
48148;Laerm;29352;48.708;9.290;2023-08-12T00:22:17;52.82;51.61;53.86;;
48148;Laerm;29352;48.708;9.290;2023-08-12T00:24:43;52.83;51.61;53.94;;
48148;Laerm;29352;48.708;9.290;2023-08-12T00:27:10;52.82;51.53;53.90;;
48148;Laerm;29352;48.708;9.290;2023-08-12T00:29:35;52.84;51.30;54.23;;
48148;Laerm;29352;48.708;9.290;2023-08-12T00:32:01;52.85;51.68;53.86;;
48148;Laerm;29352;48.708;9.290;2023-08-12T00:34:27;52.92;51.68;54.62;;
48148;Laerm;29352;48.708;9.290;2023-08-12T00:36:53;52.83;51.46;54.03;;
48148;Laerm;29352;48.708;9.290;2023-08-12T00:39:18;52.87;51.75;55.17;;
48148;Laerm;29352;48.708;9.290;2023-08-12T00:41:44;52.84;51.61;54.07;;
48148;Laerm;29352;48.708;9.290;2023-08-12T00:44:10;52.78;51.46;53.94;;
48148;Laerm;29352;48.708;9.290;2023-08-12T00:46:40;52.80;51.53;54.03;;
48148;Laerm;29352;48.708;9.290;2023-08-12T00:49:06;52.66;51.22;54.43;;
48148;Laerm;29352;48.708;9.290;2023-08-12T00:51:33;52.58;51.22;53.63;;
48148;Laerm;29352;48.708;9.290;2023-08-12T00:53:59;52.55;51.06;53.81;;
48148;Laerm;29352;48.708;9.290;2023-08-12T00:56:26;52.46;50.98;53.81;;
48148;Laerm;29352;48.708;9.290;2023-08-12T00:58:53;52.46;51.14;53.63;;
48148;Laerm;29352;48.708;9.290;2023-08-12T01:01:20;52.47;51.14;53.49;;
48148;Laerm;29352;48.708;9.290;2023-08-12T01:03:46;52.49;51.06;53.58;;
48148;Laerm;29352;48.708;9.290;2023-08-12T01:06:12;52.48;51.14;53.54;;
48148;Laerm;29352;48.708;9.290;2023-08-12T01:08:38;52.48;51.38;53.49;;
48148;Laerm;29352;48.708;9.290;2023-08-12T01:11:29;52.61;51.06;54.03;;
48148;Laerm;29352;48.708;9.290;2023-08-12T01:16:43;53.19;51.68;59.12;;
48148;Laerm;29352;48.708;9.290;2023-08-12T01:19:39;53.04;51.68;57.00;;
48148;Laerm;29352;48.708;9.290;2023-08-12T01:22:07;53.09;51.53;57.34;;
48148;Laerm;29352;48.708;9.290;2023-08-12T01:24:42;53.19;51.53;55.77;;
48148;Laerm;29352;48.708;9.290;2023-08-12T01:27:11;53.37;51.68;55.17;;
48148;Laerm;29352;48.708;9.290;2023-08-12T01:29:44;53.49;51.46;59.52;;
48148;Laerm;29352;48.708;9.290;2023-08-12T01:35:25;53.25;51.61;71.20;;
48148;Laerm;29352;48.708;9.290;2023-08-12T01:37:54;52.73;51.14;56.78;;
48148;Laerm;29352;48.708;9.290;2023-08-12T01:40:24;52.76;51.38;55.91;;
48148;Laerm;29352;48.708;9.290;2023-08-12T01:42:52;52.88;51.22;68.49;;
48148;Laerm;29352;48.708;9.290;2023-08-12T01:45:18;52.92;51.38;64.22;;
48148;Laerm;29352;48.708;9.290;2023-08-12T01:47:44;53.11;51.46;72.37;;
48148;Laerm;29352;48.708;9.290;2023-08-12T01:50:11;52.94;51.61;54.43;;
48148;Laerm;29352;48.708;9.290;2023-08-12T01:52:36;52.81;51.38;57.61;;
48148;Laerm;29352;48.708;9.290;2023-08-12T01:55:02;52.76;51.30;55.20;;
48148;Laerm;29352;48.708;9.290;2023-08-12T01:57:27;53.03;51.68;55.86;;
48148;Laerm;29352;48.708;9.290;2023-08-12T01:59:53;52.87;51.38;54.90;;
48148;Laerm;29352;48.708;9.290;2023-08-12T02:02:18;52.56;51.30;54.27;;
48148;Laerm;29352;48.708;9.290;2023-08-12T02:04:44;52.43;50.98;53.86;;
48148;Laerm;29352;48.708;9.290;2023-08-12T02:07:10;52.45;51.38;53.99;;
48148;Laerm;29352;48.708;9.290;2023-08-12T02:09:35;52.52;51.22;53.86;;
48148;Laerm;29352;48.708;9.290;2023-08-12T02:12:01;52.62;51.30;58.97;;
48148;Laerm;29352;48.708;9.290;2023-08-12T02:14:26;52.79;51.22;59.10;;
48148;Laerm;29352;48.708;9.290;2023-08-12T02:16:51;52.78;51.46;57.98;;
48148;Laerm;29352;48.708;9.290;2023-08-12T02:19:17;52.89;51.38;58.80;;
48148;Laerm;29352;48.708;9.290;2023-08-12T02:21:42;52.76;51.38;58.55;;
48148;Laerm;29352;48.708;9.290;2023-08-12T02:24:08;52.71;51.46;53.90;;
48148;Laerm;29352;48.708;9.290;2023-08-12T02:26:35;52.68;51.14;54.07;;
48148;Laerm;29352;48.708;9.290;2023-08-12T02:29:01;52.65;51.38;56.35;;
48148;Laerm;29352;48.708;9.290;2023-08-12T02:31:26;52.74;51.46;56.43;;
48148;Laerm;29352;48.708;9.290;2023-08-12T02:33:52;52.80;51.53;57.72;;
48148;Laerm;29352;48.708;9.290;2023-08-12T02:36:17;52.90;51.53;58.63;;
48148;Laerm;29352;48.708;9.290;2023-08-12T02:38:43;52.82;51.75;59.58;;
48148;Laerm;29352;48.708;9.290;2023-08-12T02:41:08;52.81;51.53;63.64;;
48148;Laerm;29352;48.708;9.290;2023-08-12T02:43:34;52.90;51.53;61.77;;
48148;Laerm;29352;48.708;9.290;2023-08-12T02:45:59;52.90;51.81;54.43;;
48148;Laerm;29352;48.708;9.290;2023-08-12T02:48:24;52.90;51.30;58.46;;
48148;Laerm;29352;48.708;9.290;2023-08-12T02:50:50;52.92;51.53;59.45;;
48148;Laerm;29352;48.708;9.290;2023-08-12T02:53:17;52.93;51.61;65.89;;
48148;Laerm;29352;48.708;9.290;2023-08-12T02:55:45;52.86;51.68;53.99;;
48148;Laerm;29352;48.708;9.290;2023-08-12T02:58:11;52.74;51.46;53.76;;
48148;Laerm;29352;48.708;9.290;2023-08-12T03:00:37;52.79;51.38;53.86;;
48148;Laerm;29352;48.708;9.290;2023-08-12T03:03:02;52.98;51.61;69.95;;
48148;Laerm;29352;48.708;9.290;2023-08-12T03:05:30;52.97;51.30;68.52;;
48148;Laerm;29352;48.708;9.290;2023-08-12T03:07:56;52.83;51.53;54.69;;
48148;Laerm;29352;48.708;9.290;2023-08-12T03:10:22;52.89;51.22;55.27;;
48148;Laerm;29352;48.708;9.290;2023-08-12T03:12:48;52.98;51.53;62.04;;
48148;Laerm;29352;48.708;9.290;2023-08-12T03:15:13;52.93;51.38;56.57;;
48148;Laerm;29352;48.708;9.290;2023-08-12T03:17:38;52.99;51.75;55.75;;
48148;Laerm;29352;48.708;9.290;2023-08-12T03:20:06;52.93;51.68;54.90;;
48148;Laerm;29352;48.708;9.290;2023-08-12T03:22:35;53.09;51.53;54.54;;
48148;Laerm;29352;48.708;9.290;2023-08-12T03:25:01;53.19;51.61;55.14;;
48148;Laerm;29352;48.708;9.290;2023-08-12T03:27:26;53.23;51.75;59.74;;
48148;Laerm;29352;48.708;9.290;2023-08-12T03:29:52;53.23;51.96;55.54;;
48148;Laerm;29352;48.708;9.290;2023-08-12T03:32:17;53.12;51.96;55.89;;
48148;Laerm;29352;48.708;9.290;2023-08-12T03:34:42;53.13;51.96;55.63;;
48148;Laerm;29352;48.708;9.290;2023-08-12T03:37:08;53.08;51.75;54.90;;
48148;Laerm;29352;48.708;9.290;2023-08-12T03:39:34;53.13;51.68;54.90;;
48148;Laerm;29352;48.708;9.290;2023-08-12T03:41:59;53.05;51.96;56.20;;
48148;Laerm;29352;48.708;9.290;2023-08-12T03:44:24;53.02;51.68;54.73;;
48148;Laerm;29352;48.708;9.290;2023-08-12T03:46:50;53.07;51.89;55.51;;
48148;Laerm;29352;48.708;9.290;2023-08-12T03:49:15;53.01;51.75;54.62;;
48148;Laerm;29352;48.708;9.290;2023-08-12T03:51:41;52.90;51.61;57.20;;
48148;Laerm;29352;48.708;9.290;2023-08-12T03:54:06;52.86;51.61;55.04;;
48148;Laerm;29352;48.708;9.290;2023-08-12T03:56:31;52.97;51.75;55.17;;
48148;Laerm;29352;48.708;9.290;2023-08-12T03:58:57;52.98;51.53;55.69;;
48148;Laerm;29352;48.708;9.290;2023-08-12T04:01:22;53.08;51.68;55.54;;
48148;Laerm;29352;48.708;9.290;2023-08-12T04:03:48;53.04;51.75;54.45;;
48148;Laerm;29352;48.708;9.290;2023-08-12T04:06:14;53.11;51.46;54.83;;
48148;Laerm;29352;48.708;9.290;2023-08-12T04:08:39;53.13;51.96;54.27;;
48148;Laerm;29352;48.708;9.290;2023-08-12T04:11:05;53.16;51.82;54.51;;
48148;Laerm;29352;48.708;9.290;2023-08-12T04:13:30;53.05;51.53;54.31;;
48148;Laerm;29352;48.708;9.290;2023-08-12T04:15:56;53.18;51.82;54.62;;
48148;Laerm;29352;48.708;9.290;2023-08-12T04:18:22;53.27;51.89;54.62;;
48148;Laerm;29352;48.708;9.290;2023-08-12T04:20:52;53.18;51.96;54.49;;
48148;Laerm;29352;48.708;9.290;2023-08-12T04:23:18;53.20;51.82;54.43;;
48148;Laerm;29352;48.708;9.290;2023-08-12T04:25:46;53.27;52.03;54.52;;
48148;Laerm;29352;48.708;9.290;2023-08-12T04:28:13;53.36;51.96;59.40;;
48148;Laerm;29352;48.708;9.290;2023-08-12T04:30:46;53.25;51.89;56.80;;
48148;Laerm;29352;48.708;9.290;2023-08-12T04:33:13;53.26;52.03;55.66;;
48148;Laerm;29352;48.708;9.290;2023-08-12T04:35:40;53.23;52.03;60.90;;
48148;Laerm;29352;48.708;9.290;2023-08-12T04:38:06;53.22;51.68;54.54;;
48148;Laerm;29352;48.708;9.290;2023-08-12T04:40:32;53.19;51.82;57.00;;
48148;Laerm;29352;48.708;9.290;2023-08-12T04:43:00;53.15;52.03;54.23;;
48148;Laerm;29352;48.708;9.290;2023-08-12T04:45:27;53.15;52.03;54.43;;
48148;Laerm;29352;48.708;9.290;2023-08-12T04:47:52;53.23;52.09;54.97;;
48148;Laerm;29352;48.708;9.290;2023-08-12T04:50:19;53.24;51.89;62.63;;
48148;Laerm;29352;48.708;9.290;2023-08-12T04:52:45;53.29;52.03;63.18;;
48148;Laerm;29352;48.708;9.290;2023-08-12T04:55:12;53.32;51.82;60.90;;
48148;Laerm;29352;48.708;9.290;2023-08-12T04:57:37;53.13;51.89;67.00;;
48148;Laerm;29352;48.708;9.290;2023-08-12T05:00:05;53.10;51.82;55.11;;
48148;Laerm;29352;48.708;9.290;2023-08-12T05:02:33;53.16;51.30;56.02;;
48148;Laerm;29352;48.708;9.290;2023-08-12T05:04:58;53.10;51.94;54.31;;
48148;Laerm;29352;48.708;9.290;2023-08-12T05:07:24;53.14;51.96;60.23;;
48148;Laerm;29352;48.708;9.290;2023-08-12T05:09:49;53.02;51.75;54.15;;
48148;Laerm;29352;48.708;9.290;2023-08-12T05:12:15;53.03;51.82;57.00;;
48148;Laerm;29352;48.708;9.290;2023-08-12T05:14:40;53.42;51.68;55.20;;
48148;Laerm;29352;48.708;9.290;2023-08-12T05:17:06;53.30;52.03;54.73;;
48148;Laerm;29352;48.708;9.290;2023-08-12T05:19:32;53.22;52.03;54.51;;
48148;Laerm;29352;48.708;9.290;2023-08-12T05:21:58;53.01;51.75;54.15;;
48148;Laerm;29352;48.708;9.290;2023-08-12T05:24:23;53.12;51.68;54.23;;
48148;Laerm;29352;48.708;9.290;2023-08-12T05:26:49;53.15;51.89;54.27;;
48148;Laerm;29352;48.708;9.290;2023-08-12T05:29:15;53.18;51.96;54.35;;
48148;Laerm;29352;48.708;9.290;2023-08-12T05:31:40;53.27;52.03;55.07;;
48148;Laerm;29352;48.708;9.290;2023-08-12T05:34:06;53.46;52.22;55.27;;
48148;Laerm;29352;48.708;9.290;2023-08-12T05:36:31;53.58;52.09;55.91;;
48148;Laerm;29352;48.708;9.290;2023-08-12T05:38:56;53.26;51.96;55.01;;
48148;Laerm;29352;48.708;9.290;2023-08-12T05:41:22;53.08;51.89;54.31;;
48148;Laerm;29352;48.708;9.290;2023-08-12T05:43:50;53.16;52.03;54.43;;
48148;Laerm;29352;48.708;9.290;2023-08-12T05:46:16;53.33;52.03;54.51;;
48148;Laerm;29352;48.708;9.290;2023-08-12T05:48:42;53.51;52.09;57.76;;
48148;Laerm;29352;48.708;9.290;2023-08-12T05:51:08;53.52;52.29;55.01;;
48148;Laerm;29352;48.708;9.290;2023-08-12T05:53:33;53.46;52.16;59.59;;
48148;Laerm;29352;48.708;9.290;2023-08-12T05:55:59;53.58;51.89;55.48;;
48148;Laerm;29352;48.708;9.290;2023-08-12T05:58:25;53.35;52.16;55.42;;
48148;Laerm;29352;48.708;9.290;2023-08-12T06:00:51;53.14;52.09;55.77;;
48148;Laerm;29352;48.708;9.290;2023-08-12T06:03:16;53.21;52.03;57.26;;
48148;Laerm;29352;48.708;9.290;2023-08-12T06:05:45;53.15;51.89;56.40;;
48148;Laerm;29352;48.708;9.290;2023-08-12T06:08:12;53.24;51.89;57.38;;
48148;Laerm;29352;48.708;9.290;2023-08-12T06:10:37;53.23;51.96;55.86;;
48148;Laerm;29352;48.708;9.290;2023-08-12T06:13:03;53.19;52.03;57.16;;
48148;Laerm;29352;48.708;9.290;2023-08-12T06:15:29;53.13;51.96;57.74;;
48148;Laerm;29352;48.708;9.290;2023-08-12T06:17:55;53.12;52.16;54.15;;
48148;Laerm;29352;48.708;9.290;2023-08-12T06:20:20;53.12;51.68;54.19;;
48148;Laerm;29352;48.708;9.290;2023-08-12T06:22:46;53.12;51.96;54.23;;
48148;Laerm;29352;48.708;9.290;2023-08-12T06:25:11;53.12;51.96;54.07;;
48148;Laerm;29352;48.708;9.290;2023-08-12T06:27:37;53.13;51.82;54.27;;
48148;Laerm;29352;48.708;9.290;2023-08-12T06:30:03;53.15;51.89;54.15;;
48148;Laerm;29352;48.708;9.290;2023-08-12T06:32:28;53.13;51.96;54.11;;
48148;Laerm;29352;48.708;9.290;2023-08-12T06:34:54;53.14;52.03;54.11;;
48148;Laerm;29352;48.708;9.290;2023-08-12T06:37:19;53.15;51.96;54.27;;
48148;Laerm;29352;48.708;9.290;2023-08-12T06:39:45;53.15;51.96;54.31;;
48148;Laerm;29352;48.708;9.290;2023-08-12T06:42:10;53.14;51.96;54.15;;
48148;Laerm;29352;48.708;9.290;2023-08-12T06:44:35;53.15;52.03;54.07;;
48148;Laerm;29352;48.708;9.290;2023-08-12T06:47:01;53.15;52.03;54.11;;
48148;Laerm;29352;48.708;9.290;2023-08-12T06:49:26;53.16;52.09;54.23;;
48148;Laerm;29352;48.708;9.290;2023-08-12T06:51:52;53.18;52.16;54.39;;
48148;Laerm;29352;48.708;9.290;2023-08-12T06:54:17;53.18;52.09;54.15;;
48148;Laerm;29352;48.708;9.290;2023-08-12T06:56:43;53.15;52.03;54.04;;
48148;Laerm;29352;48.708;9.290;2023-08-12T06:59:08;53.27;51.89;54.15;;
48148;Laerm;29352;48.708;9.290;2023-08-12T07:01:34;53.50;52.41;54.58;;
48148;Laerm;29352;48.708;9.290;2023-08-12T07:03:59;53.71;52.41;54.69;;
48148;Laerm;29352;48.708;9.290;2023-08-12T07:06:25;53.88;52.76;54.87;;
48148;Laerm;29352;48.708;9.290;2023-08-12T07:08:50;54.15;53.09;62.02;;
48148;Laerm;29352;48.708;9.290;2023-08-12T07:11:15;54.20;53.14;55.42;;
48148;Laerm;29352;48.708;9.290;2023-08-12T07:13:41;54.12;53.09;55.14;;
48148;Laerm;29352;48.708;9.290;2023-08-12T07:16:08;54.06;53.04;58.08;;
48148;Laerm;29352;48.708;9.290;2023-08-12T07:18:33;54.28;53.19;55.33;;
48148;Laerm;29352;48.708;9.290;2023-08-12T07:20:59;54.40;53.19;56.45;;
48148;Laerm;29352;48.708;9.290;2023-08-12T07:23:25;54.25;53.09;55.33;;
48148;Laerm;29352;48.708;9.290;2023-08-12T07:25:50;54.28;53.14;55.36;;
48148;Laerm;29352;48.708;9.290;2023-08-12T07:28:16;54.37;53.09;55.45;;
48148;Laerm;29352;48.708;9.290;2023-08-12T07:30:41;54.37;53.14;55.45;;
48148;Laerm;29352;48.708;9.290;2023-08-12T07:33:07;54.35;53.34;55.39;;
48148;Laerm;29352;48.708;9.290;2023-08-12T07:35:32;54.39;53.39;55.33;;
48148;Laerm;29352;48.708;9.290;2023-08-12T07:37:58;54.41;53.34;55.48;;
48148;Laerm;29352;48.708;9.290;2023-08-12T07:40:24;54.39;53.34;55.54;;
48148;Laerm;29352;48.708;9.290;2023-08-12T07:42:49;54.37;53.34;55.39;;
48148;Laerm;29352;48.708;9.290;2023-08-12T07:45:15;54.38;53.34;55.45;;
48148;Laerm;29352;48.708;9.290;2023-08-12T07:47:40;54.37;53.24;55.63;;
48148;Laerm;29352;48.708;9.290;2023-08-12T07:50:07;54.34;53.24;55.86;;
48148;Laerm;29352;48.708;9.290;2023-08-12T07:52:32;54.28;53.14;55.17;;
48148;Laerm;29352;48.708;9.290;2023-08-12T07:54:58;54.24;52.93;55.27;;
48148;Laerm;29352;48.708;9.290;2023-08-12T07:57:23;54.25;53.09;55.23;;
48148;Laerm;29352;48.708;9.290;2023-08-12T07:59:51;54.26;53.14;55.30;;
48148;Laerm;29352;48.708;9.290;2023-08-12T08:02:17;54.26;53.04;55.30;;
48148;Laerm;29352;48.708;9.290;2023-08-12T08:04:42;54.22;53.19;55.27;;
48148;Laerm;29352;48.708;9.290;2023-08-12T08:07:08;54.17;52.98;55.20;;
48148;Laerm;29352;48.708;9.290;2023-08-12T08:09:34;54.14;52.93;55.23;;
48148;Laerm;29352;48.708;9.290;2023-08-12T08:12:00;54.17;53.09;55.36;;
48148;Laerm;29352;48.708;9.290;2023-08-12T08:14:26;54.16;53.14;55.36;;
48148;Laerm;29352;48.708;9.290;2023-08-12T08:16:53;54.11;52.93;55.01;;
48148;Laerm;29352;48.708;9.290;2023-08-12T08:19:18;54.09;52.82;55.11;;
48148;Laerm;29352;48.708;9.290;2023-08-12T08:21:44;54.10;53.09;54.98;;
48148;Laerm;29352;48.708;9.290;2023-08-12T08:24:10;54.17;53.04;55.36;;
48148;Laerm;29352;48.708;9.290;2023-08-12T08:26:40;54.22;53.14;55.20;;
48148;Laerm;29352;48.708;9.290;2023-08-12T08:29:06;54.20;53.14;55.14;;
48148;Laerm;29352;48.708;9.290;2023-08-12T08:31:32;54.17;53.24;55.11;;
48148;Laerm;29352;48.708;9.290;2023-08-12T08:33:58;54.16;53.14;55.36;;
48148;Laerm;29352;48.708;9.290;2023-08-12T08:36:23;54.23;53.14;55.30;;
48148;Laerm;29352;48.708;9.290;2023-08-12T08:38:49;54.32;53.14;55.30;;
48148;Laerm;29352;48.708;9.290;2023-08-12T08:41:16;54.29;53.19;55.27;;
48148;Laerm;29352;48.708;9.290;2023-08-12T08:43:43;54.22;53.14;55.30;;
48148;Laerm;29352;48.708;9.290;2023-08-12T08:46:14;54.21;53.14;55.23;;
48148;Laerm;29352;48.708;9.290;2023-08-12T08:48:42;54.19;53.14;55.94;;
48148;Laerm;29352;48.708;9.290;2023-08-12T08:51:10;54.12;53.04;55.14;;
48148;Laerm;29352;48.708;9.290;2023-08-12T08:53:41;54.09;52.93;55.69;;
48148;Laerm;29352;48.708;9.290;2023-08-12T08:56:08;54.00;52.93;55.17;;
48148;Laerm;29352;48.708;9.290;2023-08-12T08:58:38;53.97;52.82;54.90;;
48148;Laerm;29352;48.708;9.290;2023-08-12T09:01:06;54.00;52.76;55.04;;
48148;Laerm;29352;48.708;9.290;2023-08-12T09:03:36;54.05;52.98;55.17;;
48148;Laerm;29352;48.708;9.290;2023-08-12T09:06:02;54.09;52.98;55.14;;
48148;Laerm;29352;48.708;9.290;2023-08-12T09:08:31;54.10;52.93;55.14;;
48148;Laerm;29352;48.708;9.290;2023-08-12T09:11:00;54.07;53.04;55.17;;
48148;Laerm;29352;48.708;9.290;2023-08-12T09:13:27;54.00;52.71;55.01;;
48148;Laerm;29352;48.708;9.290;2023-08-12T09:15:54;54.09;53.04;55.14;;
48148;Laerm;29352;48.708;9.290;2023-08-12T09:18:20;53.99;52.88;54.90;;
48148;Laerm;29352;48.708;9.290;2023-08-12T09:20:53;53.95;52.93;55.01;;
48148;Laerm;29352;48.708;9.290;2023-08-12T09:23:19;53.93;52.65;54.83;;
48148;Laerm;29352;48.708;9.290;2023-08-12T09:25:45;53.96;52.98;54.90;;
48148;Laerm;29352;48.708;9.290;2023-08-12T09:28:12;53.92;52.90;54.94;;
48148;Laerm;29352;48.708;9.290;2023-08-12T09:30:39;53.93;52.71;54.94;;
48148;Laerm;29352;48.708;9.290;2023-08-12T09:33:07;54.00;52.93;55.04;;
48148;Laerm;29352;48.708;9.290;2023-08-12T09:35:37;54.01;52.93;55.04;;
48148;Laerm;29352;48.708;9.290;2023-08-12T09:38:05;53.93;52.82;59.07;;
48148;Laerm;29352;48.708;9.290;2023-08-12T09:40:33;53.74;52.41;54.73;;
48148;Laerm;29352;48.708;9.290;2023-08-12T09:43:00;53.60;52.47;54.58;;
48148;Laerm;29352;48.708;9.290;2023-08-12T09:45:26;53.56;52.35;54.54;;
48148;Laerm;29352;48.708;9.290;2023-08-12T09:47:54;53.53;52.35;54.58;;
48148;Laerm;29352;48.708;9.290;2023-08-12T09:50:25;53.56;52.41;54.69;;
48148;Laerm;29352;48.708;9.290;2023-08-12T09:52:53;53.73;52.22;54.90;;
48148;Laerm;29352;48.708;9.290;2023-08-12T09:55:23;53.89;52.88;54.90;;
48148;Laerm;29352;48.708;9.290;2023-08-12T09:57:54;53.96;52.82;54.87;;
48148;Laerm;29352;48.708;9.290;2023-08-12T10:00:24;54.00;52.88;55.01;;
48148;Laerm;29352;48.708;9.290;2023-08-12T10:02:52;53.95;52.65;54.97;;
48148;Laerm;29352;48.708;9.290;2023-08-12T10:05:34;53.84;52.29;54.83;;
48148;Laerm;29352;48.708;9.290;2023-08-12T10:08:00;53.92;52.93;55.01;;
48148;Laerm;29352;48.708;9.290;2023-08-12T10:10:32;53.92;52.88;54.87;;
48148;Laerm;29352;48.708;9.290;2023-08-12T10:12:58;53.93;52.82;54.90;;
48148;Laerm;29352;48.708;9.290;2023-08-12T10:15:25;53.87;52.82;54.83;;
48148;Laerm;29352;48.708;9.290;2023-08-12T10:17:52;53.96;52.93;55.04;;
48148;Laerm;29352;48.708;9.290;2023-08-12T10:20:23;54.01;52.93;55.14;;
48148;Laerm;29352;48.708;9.290;2023-08-12T10:22:51;54.03;53.04;55.01;;
48148;Laerm;29352;48.708;9.290;2023-08-12T10:25:19;54.04;52.82;55.07;;
48148;Laerm;29352;48.708;9.290;2023-08-12T10:27:48;54.06;53.00;55.27;;
48148;Laerm;29352;48.708;9.290;2023-08-12T10:30:14;54.02;52.88;55.01;;
48148;Laerm;29352;48.708;9.290;2023-08-12T10:32:40;54.04;52.88;55.04;;
48148;Laerm;29352;48.708;9.290;2023-08-12T10:35:07;54.06;52.88;55.11;;
48148;Laerm;29352;48.708;9.290;2023-08-12T10:37:34;54.08;52.76;55.04;;
48148;Laerm;29352;48.708;9.290;2023-08-12T10:40:04;54.07;52.93;55.04;;
48148;Laerm;29352;48.708;9.290;2023-08-12T10:42:48;54.06;52.82;55.07;;
48148;Laerm;29352;48.708;9.290;2023-08-12T10:45:17;54.08;52.98;55.27;;
48148;Laerm;29352;48.708;9.290;2023-08-12T10:50:34;54.04;53.04;55.01;;
48148;Laerm;29352;48.708;9.290;2023-08-12T10:53:29;54.06;52.98;55.23;;
48148;Laerm;29352;48.708;9.290;2023-08-12T10:56:03;54.07;52.88;55.01;;
48148;Laerm;29352;48.708;9.290;2023-08-12T10:58:54;53.99;52.71;60.01;;
48148;Laerm;29352;48.708;9.290;2023-08-12T11:01:19;53.92;52.82;55.17;;
48148;Laerm;29352;48.708;9.290;2023-08-12T11:03:48;53.85;52.53;54.90;;
48148;Laerm;29352;48.708;9.290;2023-08-12T11:06:13;53.88;52.82;54.95;;
48148;Laerm;29352;48.708;9.290;2023-08-12T11:08:56;53.87;52.76;54.80;;
48148;Laerm;29352;48.708;9.290;2023-08-12T11:11:23;53.79;52.59;54.87;;
48148;Laerm;29352;48.708;9.290;2023-08-12T11:13:58;53.74;52.53;54.87;;
48148;Laerm;29352;48.708;9.290;2023-08-12T11:16:37;53.83;52.65;54.94;;
48148;Laerm;29352;48.708;9.290;2023-08-12T11:19:04;53.81;52.76;54.76;;
48148;Laerm;29352;48.708;9.290;2023-08-12T11:21:30;53.74;52.47;54.73;;
48148;Laerm;29352;48.708;9.290;2023-08-12T11:23:55;53.67;52.59;54.76;;
48148;Laerm;29352;48.708;9.290;2023-08-12T11:26:24;53.63;52.47;54.58;;
48148;Laerm;29352;48.708;9.290;2023-08-12T11:28:49;53.75;52.53;54.73;;
48148;Laerm;29352;48.708;9.290;2023-08-12T11:31:16;53.73;52.65;54.80;;
48148;Laerm;29352;48.708;9.290;2023-08-12T11:33:43;53.74;52.71;54.65;;
48148;Laerm;29352;48.708;9.290;2023-08-12T11:36:09;53.75;52.29;54.62;;
48148;Laerm;29352;48.708;9.290;2023-08-12T11:38:34;53.87;52.53;54.87;;
48148;Laerm;29352;48.708;9.290;2023-08-12T11:41:03;53.91;52.82;55.07;;
48148;Laerm;29352;48.708;9.290;2023-08-12T11:43:29;53.86;52.53;54.97;;
48148;Laerm;29352;48.708;9.290;2023-08-12T11:45:56;53.83;52.82;55.20;;
48148;Laerm;29352;48.708;9.290;2023-08-12T11:48:22;53.81;52.65;54.76;;
48148;Laerm;29352;48.708;9.290;2023-08-12T11:50:50;53.81;52.71;54.73;;
48148;Laerm;29352;48.708;9.290;2023-08-12T11:53:16;53.84;52.88;54.87;;
48148;Laerm;29352;48.708;9.290;2023-08-12T11:55:43;53.89;52.82;55.01;;
48148;Laerm;29352;48.708;9.290;2023-08-12T11:58:09;53.89;52.59;55.01;;
48148;Laerm;29352;48.708;9.290;2023-08-12T12:00:37;54.03;52.93;54.94;;
48148;Laerm;29352;48.708;9.290;2023-08-12T12:03:03;54.07;53.09;55.11;;
48148;Laerm;29352;48.708;9.290;2023-08-12T12:05:29;53.97;52.88;55.07;;
48148;Laerm;29352;48.708;9.290;2023-08-12T12:08:01;53.94;52.71;54.97;;
48148;Laerm;29352;48.708;9.290;2023-08-12T12:10:32;53.92;52.82;54.94;;
48148;Laerm;29352;48.708;9.290;2023-08-12T12:13:00;53.98;52.88;54.97;;
48148;Laerm;29352;48.708;9.290;2023-08-12T12:15:25;54.04;52.82;55.07;;
48148;Laerm;29352;48.708;9.290;2023-08-12T12:17:51;54.09;53.09;55.11;;
48148;Laerm;29352;48.708;9.290;2023-08-12T12:20:18;54.12;52.93;55.20;;
48148;Laerm;29352;48.708;9.290;2023-08-12T12:22:45;54.11;53.14;55.11;;
48148;Laerm;29352;48.708;9.290;2023-08-12T12:25:14;54.13;52.93;55.27;;
48148;Laerm;29352;48.708;9.290;2023-08-12T12:27:42;54.12;52.88;55.33;;
48148;Laerm;29352;48.708;9.290;2023-08-12T12:30:11;54.12;53.04;55.14;;
48148;Laerm;29352;48.708;9.290;2023-08-12T12:32:37;54.12;53.09;55.01;;
48148;Laerm;29352;48.708;9.290;2023-08-12T12:35:03;54.14;52.98;55.11;;
48148;Laerm;29352;48.708;9.290;2023-08-12T12:37:30;53.80;52.53;55.17;;
48148;Laerm;29352;48.708;9.290;2023-08-12T12:39:56;54.23;52.22;61.09;;
48148;Laerm;29352;48.708;9.290;2023-08-12T12:42:21;54.87;52.41;61.69;;
48148;Laerm;29352;48.708;9.290;2023-08-12T12:44:47;54.53;52.59;63.30;;
48148;Laerm;29352;48.708;9.290;2023-08-12T12:47:12;54.64;52.53;61.36;;
48148;Laerm;29352;48.708;9.290;2023-08-12T12:49:39;54.40;52.41;62.73;;
48148;Laerm;29352;48.708;9.290;2023-08-12T12:52:06;61.24;15.00;96.38;;
48148;Laerm;29352;48.708;9.290;2023-08-12T12:54:32;85.89;15.00;99.50;;
48148;Laerm;29352;48.708;9.290;2023-08-12T12:56:58;97.59;15.00;107.80;;
48148;Laerm;29352;48.708;9.290;2023-08-12T12:59:23;94.57;48.67;105.48;;
48148;Laerm;29352;48.708;9.290;2023-08-12T13:01:49;78.06;47.12;99.24;;
48148;Laerm;29352;48.708;9.290;2023-08-12T13:04:14;51.72;50.13;53.04;;
48148;Laerm;29352;48.708;9.290;2023-08-12T13:06:40;52.27;50.53;53.81;;
48148;Laerm;29352;48.708;9.290;2023-08-12T13:09:06;52.84;51.14;54.58;;
48148;Laerm;29352;48.708;9.290;2023-08-12T13:11:33;52.95;51.68;54.65;;
48148;Laerm;29352;48.708;9.290;2023-08-12T13:14:03;53.23;51.68;56.45;;
48148;Laerm;29352;48.708;9.290;2023-08-12T13:16:29;53.35;51.75;55.45;;
48148;Laerm;29352;48.708;9.290;2023-08-12T13:18:55;53.39;52.03;55.48;;
48148;Laerm;29352;48.708;9.290;2023-08-12T13:21:24;53.54;51.96;57.90;;
48148;Laerm;29352;48.708;9.290;2023-08-12T13:23:49;53.24;51.96;55.27;;
48148;Laerm;29352;48.708;9.290;2023-08-12T13:26:15;53.29;51.75;55.89;;
48148;Laerm;29352;48.708;9.290;2023-08-12T13:28:40;53.28;52.03;54.83;;
48148;Laerm;29352;48.708;9.290;2023-08-12T13:31:05;53.37;51.89;55.04;;
48148;Laerm;29352;48.708;9.290;2023-08-12T13:33:31;53.46;52.09;55.48;;
48148;Laerm;29352;48.708;9.290;2023-08-12T13:35:56;54.42;52.22;59.51;;
48148;Laerm;29352;48.708;9.290;2023-08-12T13:38:22;53.93;52.22;58.77;;
48148;Laerm;29352;48.708;9.290;2023-08-12T13:40:48;53.64;51.96;60.20;;
48148;Laerm;29352;48.708;9.290;2023-08-12T13:43:14;53.76;52.16;55.94;;
48148;Laerm;29352;48.708;9.290;2023-08-12T13:45:39;53.82;52.16;55.94;;
48148;Laerm;29352;48.708;9.290;2023-08-12T13:48:05;53.74;52.35;55.97;;
48148;Laerm;29352;48.708;9.290;2023-08-12T13:50:30;53.63;52.16;55.07;;